createdAt,value
2022-11-27T00:00:14.038Z,6.73
2022-11-27T00:04:21.790Z,6.78
2022-11-27T00:08:25.157Z,6.51
2022-11-27T00:12:26.674Z,6.40
2022-11-27T00:16:28.578Z,6.43
2022-11-27T00:20:30.201Z,6.40
2022-11-27T00:24:31.658Z,6.24
2022-11-27T00:28:33.974Z,6.34
2022-11-27T00:32:35.457Z,6.49
2022-11-27T00:36:37.811Z,5.99
2022-11-27T00:40:39.236Z,6.19
2022-11-27T00:44:40.867Z,6.10
2022-11-27T00:48:43.226Z,6.36
2022-11-27T00:52:44.724Z,6.46
2022-11-27T00:56:46.183Z,6.61
2022-11-27T01:00:54.876Z,6.38
2022-11-27T01:04:56.425Z,6.61
2022-11-27T01:08:59.191Z,6.62
2022-11-27T01:13:00.683Z,6.57
2022-11-27T01:17:02.290Z,6.49
2022-11-27T01:21:04.424Z,6.49
2022-11-27T01:25:06.482Z,6.64
2022-11-27T01:29:08.110Z,6.68
2022-11-27T01:33:09.519Z,6.66
2022-11-27T01:37:10.944Z,6.60
2022-11-27T01:41:27.602Z,6.62
2022-11-27T01:45:29.175Z,6.66
2022-11-27T01:49:52.779Z,6.48
2022-11-27T01:53:54.720Z,6.47
2022-11-27T01:58:05.382Z,6.52
2022-11-27T02:02:07.103Z,6.47
2022-11-27T02:06:12.862Z,6.45
2022-11-27T02:10:16.131Z,6.51
2022-11-27T02:14:29.840Z,6.17
2022-11-27T02:18:43.409Z,6.06
2022-11-27T02:23:29.608Z,5.93
2022-11-27T02:28:05.111Z,5.95
2022-11-27T02:32:16.830Z,5.90
2022-11-27T02:36:23.380Z,5.41
2022-11-27T02:40:36.087Z,5.28
2022-11-27T02:44:44.470Z,5.29
2022-11-27T02:48:53.193Z,4.97
2022-11-27T02:53:00.185Z,5.07
2022-11-27T02:57:04.900Z,5.00
2022-11-27T03:01:08.302Z,4.91
2022-11-27T03:05:14.545Z,4.67
2022-11-27T03:09:25.106Z,4.88
2022-11-27T03:13:27.756Z,4.37
2022-11-27T03:17:41.149Z,4.31
2022-11-27T03:21:47.646Z,4.07
2022-11-27T03:25:49.219Z,4.02
2022-11-27T03:29:58.080Z,4.07
2022-11-27T03:33:59.597Z,4.22
2022-11-27T03:38:01.103Z,4.27
2022-11-27T03:42:08.601Z,4.16
2022-11-27T03:46:23.687Z,4.26
2022-11-27T03:50:46.766Z,3.96
2022-11-27T03:55:01.292Z,3.97
2022-11-27T03:59:25.360Z,3.83
2022-11-27T04:03:29.071Z,3.64
2022-11-27T04:07:30.679Z,3.97
2022-11-27T04:11:32.286Z,3.86
2022-11-27T04:15:33.699Z,3.60
2022-11-27T04:19:35.228Z,3.88
2022-11-27T04:23:38.433Z,3.82
2022-11-27T04:27:39.951Z,3.57
2022-11-27T04:31:41.460Z,3.63
2022-11-27T04:35:43.362Z,3.81
2022-11-27T04:39:44.792Z,3.86
2022-11-27T04:43:46.221Z,4.02
2022-11-27T04:47:47.941Z,3.89
2022-11-27T04:51:49.427Z,4.06
2022-11-27T04:55:52.309Z,4.08
2022-11-27T04:59:53.783Z,4.12
2022-11-27T05:03:55.228Z,3.94
2022-11-27T05:07:56.756Z,3.89
2022-11-27T05:11:58.294Z,3.84
2022-11-27T05:16:00.069Z,3.85
2022-11-27T05:20:01.549Z,3.83
2022-11-27T05:24:03.182Z,3.75
2022-11-27T05:28:04.979Z,3.67
2022-11-27T05:32:06.469Z,3.41
2022-11-27T05:36:08.260Z,3.36
2022-11-27T05:40:10.132Z,3.34
2022-11-27T05:44:15.249Z,3.23
2022-11-27T05:48:19.446Z,3.27
2022-11-27T05:52:20.951Z,3.08
2022-11-27T05:56:22.432Z,3.09
2022-11-27T06:00:24.651Z,3.18
2022-11-27T06:04:31.792Z,3.00
2022-11-27T06:08:33.306Z,2.95
2022-11-27T06:12:34.749Z,3.07
2022-11-27T06:16:39.463Z,2.96
2022-11-27T06:20:44.638Z,2.96
2022-11-27T06:24:49.552Z,2.99
2022-11-27T06:28:51.367Z,3.03
2022-11-27T06:32:52.853Z,2.63
2022-11-27T06:37:00.978Z,2.89
2022-11-27T06:41:12.494Z,2.98
2022-11-27T06:45:14.060Z,2.83
2022-11-27T06:49:17.811Z,2.56
2022-11-27T06:53:22.266Z,2.63
2022-11-27T06:57:23.769Z,2.69
2022-11-27T07:01:30.059Z,2.55
2022-11-27T07:05:31.668Z,2.70
2022-11-27T07:09:33.124Z,2.61
2022-11-27T07:13:35.213Z,2.65
2022-11-27T07:17:37.961Z,2.61
2022-11-27T07:21:39.632Z,2.35
2022-11-27T07:25:41.092Z,2.64
2022-11-27T07:29:44.702Z,2.62
2022-11-27T07:33:46.185Z,2.63
2022-11-27T07:37:47.709Z,2.67
2022-11-27T07:41:49.157Z,2.78
2022-11-27T07:45:53.212Z,2.73
2022-11-27T07:49:55.202Z,2.74
2022-11-27T07:53:57.102Z,2.96
2022-11-27T07:57:58.566Z,3.10
2022-11-27T08:02:00.019Z,2.96
2022-11-27T08:06:05.077Z,3.05
2022-11-27T08:10:07.854Z,3.06
2022-11-27T08:14:09.712Z,3.24
2022-11-27T08:18:11.158Z,3.27
2022-11-27T08:22:14.448Z,3.41
2022-11-27T08:26:16.389Z,3.19
2022-11-27T08:30:17.997Z,3.25
2022-11-27T08:34:19.466Z,2.96
2022-11-27T08:38:21.797Z,3.37
2022-11-27T08:42:23.476Z,3.66
2022-11-27T08:46:24.993Z,3.22
2022-11-27T08:50:26.439Z,3.55
2022-11-27T08:54:27.941Z,3.75
2022-11-27T08:58:29.405Z,3.98
2022-11-27T09:02:30.853Z,4.35
2022-11-27T09:06:34.763Z,4.26
2022-11-27T09:10:36.885Z,4.30
2022-11-27T09:14:40.067Z,4.37
2022-11-27T09:18:44.492Z,4.56
2022-11-27T09:22:45.993Z,4.63
2022-11-27T09:26:47.496Z,5.12
2022-11-27T09:30:49.076Z,5.58
2022-11-27T09:34:53.461Z,5.39
2022-11-27T09:38:57.456Z,5.80
2022-11-27T09:43:09.855Z,5.89
2022-11-27T09:47:28.247Z,6.17
2022-11-27T09:51:44.086Z,6.78
2022-11-27T09:55:51.604Z,7.12
2022-11-27T09:59:55.015Z,6.99
2022-11-27T10:03:56.810Z,6.76
2022-11-27T10:08:23.720Z,6.98
2022-11-27T10:12:25.151Z,7.41
2022-11-27T10:16:42.931Z,7.02
2022-11-27T10:20:52.398Z,6.65
2022-11-27T10:25:08.056Z,6.92
2022-11-27T10:29:36.109Z,7.65
2022-11-27T10:33:53.694Z,7.74
2022-11-27T10:38:11.369Z,8.13
2022-11-27T10:42:22.299Z,8.44
2022-11-27T10:46:37.032Z,8.18
2022-11-27T10:50:39.693Z,8.63
2022-11-27T10:54:42.896Z,7.41
2022-11-27T10:59:04.850Z,7.89
2022-11-27T11:03:07.190Z,7.35
2022-11-27T11:07:29.360Z,8.34
2022-11-27T11:11:30.857Z,8.53
2022-11-27T11:15:33.214Z,8.84
2022-11-27T11:19:37.687Z,9.06
2022-11-27T11:23:40.935Z,8.02
2022-11-27T11:27:43.886Z,7.16
2022-11-27T11:31:45.512Z,7.31
2022-11-27T11:35:55.649Z,8.32
2022-11-27T11:40:13.170Z,7.92
2022-11-27T11:44:25.735Z,9.37
2022-11-27T11:48:28.128Z,9.18
2022-11-27T11:52:41.673Z,9.32
2022-11-27T11:56:49.509Z,9.42
2022-11-27T12:01:28.511Z,9.68
2022-11-27T12:05:57.228Z,9.66
2022-11-27T12:10:05.278Z,10.38
2022-11-27T12:14:27.675Z,9.80
2022-11-27T12:18:48.691Z,9.27
2022-11-27T12:23:11.792Z,8.34
2022-11-27T12:27:39.600Z,8.21
2022-11-27T12:32:13.265Z,8.09
2022-11-27T12:36:20.905Z,8.42
2022-11-27T12:40:28.222Z,9.06
2022-11-27T12:44:54.593Z,9.15
2022-11-27T12:49:01.434Z,9.62
2022-11-27T12:53:15.993Z,9.72
2022-11-27T12:57:27.323Z,9.94
2022-11-27T13:01:36.346Z,10.49
2022-11-27T13:05:55.038Z,10.14
2022-11-27T13:10:25.662Z,10.65
2022-11-27T13:14:28.353Z,10.37
2022-11-27T13:18:37.257Z,10.81
2022-11-27T13:22:39.167Z,10.21
2022-11-27T13:26:44.090Z,9.43
2022-11-27T13:30:47.320Z,9.15
2022-11-27T13:34:50.751Z,8.82
2022-11-27T13:38:56.437Z,9.05
2022-11-27T13:43:05.292Z,8.48
2022-11-27T13:47:12.120Z,8.32
2022-11-27T13:51:26.676Z,8.24
2022-11-27T13:55:31.271Z,8.03
2022-11-27T13:59:36.443Z,7.94
2022-11-27T14:03:40.723Z,7.88
2022-11-27T14:08:00.411Z,7.41
2022-11-27T14:12:13.418Z,7.24
2022-11-27T14:16:35.764Z,7.06
2022-11-27T14:20:47.790Z,7.08
2022-11-27T14:24:55.807Z,6.91
2022-11-27T14:28:59.780Z,6.85
2022-11-27T14:33:05.168Z,6.81
2022-11-27T14:37:06.745Z,6.62
2022-11-27T14:41:15.639Z,6.49
2022-11-27T14:45:20.496Z,6.49
2022-11-27T14:49:24.867Z,6.42
2022-11-27T14:53:27.638Z,6.27
2022-11-27T14:57:30.445Z,6.29
2022-11-27T15:01:34.523Z,6.08
2022-11-27T15:05:38.371Z,5.95
2022-11-27T15:09:44.870Z,6.00
2022-11-27T15:13:55.001Z,5.92
2022-11-27T15:17:58.323Z,5.92
2022-11-27T15:22:00.247Z,5.75
2022-11-27T15:26:01.866Z,5.86
2022-11-27T15:30:12.049Z,5.61
2022-11-27T15:34:13.518Z,5.72
2022-11-27T15:38:18.141Z,5.64
2022-11-27T15:42:20.819Z,5.75
2022-11-27T15:46:30.072Z,5.74
2022-11-27T15:50:31.918Z,5.56
2022-11-27T15:54:33.348Z,5.49
2022-11-27T15:58:34.808Z,5.31
2022-11-27T16:02:37.703Z,5.26
2022-11-27T16:06:39.253Z,5.41
2022-11-27T16:10:41.429Z,5.24
2022-11-27T16:14:43.042Z,5.26
2022-11-27T16:18:44.850Z,5.15
2022-11-27T16:22:46.333Z,5.28
2022-11-27T16:26:47.991Z,4.86
2022-11-27T16:30:49.505Z,4.65
2022-11-27T16:34:51.156Z,4.67
2022-11-27T16:38:54.507Z,4.66
2022-11-27T16:42:56.009Z,4.87
2022-11-27T16:46:57.519Z,4.77
2022-11-27T16:51:10.099Z,5.19
2022-11-27T16:55:11.641Z,4.91
2022-11-27T16:59:14.925Z,5.00
2022-11-27T17:03:19.737Z,5.01
2022-11-27T17:07:30.227Z,5.06
2022-11-27T17:11:33.877Z,4.94
2022-11-27T17:15:40.357Z,4.97
2022-11-27T17:19:42.612Z,4.88
2022-11-27T17:23:46.785Z,4.94
2022-11-27T17:27:49.038Z,4.89
2022-11-27T17:31:50.721Z,4.80
2022-11-27T17:35:52.371Z,4.72
2022-11-27T17:39:57.104Z,4.68
2022-11-27T17:44:01.452Z,4.94
2022-11-27T17:48:02.983Z,4.98
2022-11-27T17:52:18.833Z,4.80
2022-11-27T17:56:38.139Z,4.67
2022-11-27T18:00:44.394Z,4.63
2022-11-27T18:04:46.132Z,4.55
2022-11-27T18:08:47.845Z,4.67
2022-11-27T18:12:49.315Z,4.70
2022-11-27T18:16:53.677Z,4.66
2022-11-27T18:20:55.571Z,4.68
2022-11-27T18:25:03.685Z,4.74
2022-11-27T18:29:23.998Z,4.70
2022-11-27T18:37:40.885Z,4.59
2022-11-27T18:41:48.593Z,4.77
2022-11-27T18:45:50.253Z,4.53
2022-11-27T18:49:51.902Z,4.49
2022-11-27T18:53:56.630Z,4.53
2022-11-27T18:58:04.265Z,4.50
2022-11-27T19:02:11.915Z,4.58
2022-11-27T19:06:16.732Z,4.36
2022-11-27T19:10:18.506Z,4.36
2022-11-27T19:14:19.988Z,4.28
2022-11-27T19:18:21.482Z,4.25
2022-11-27T19:22:23.084Z,4.29
2022-11-27T19:30:48.516Z,4.09
2022-11-27T19:34:51.165Z,4.10
2022-11-27T19:39:05.008Z,4.12
2022-11-27T19:43:09.335Z,4.09
2022-11-27T19:47:18.964Z,4.00
2022-11-27T19:51:52.289Z,3.98
2022-11-27T19:55:55.633Z,3.89
2022-11-27T20:04:34.277Z,3.88
2022-11-27T20:08:36.195Z,3.89
2022-11-27T20:12:40.978Z,3.91
2022-11-27T20:16:42.496Z,3.77
2022-11-27T20:21:01.664Z,3.75
2022-11-27T20:25:18.869Z,3.80
2022-11-27T20:29:23.749Z,3.77
2022-11-27T20:33:25.887Z,3.85
2022-11-27T20:42:04.369Z,3.72
2022-11-27T20:46:13.163Z,3.68
2022-11-27T20:50:17.630Z,3.58
2022-11-27T20:58:52.615Z,3.34
2022-11-27T21:02:54.280Z,3.44
2022-11-27T21:07:11.543Z,3.42
2022-11-27T21:11:24.919Z,3.30
2022-11-27T21:15:26.548Z,3.36
2022-11-27T21:19:37.175Z,3.37
2022-11-27T21:23:40.527Z,3.50
2022-11-27T21:27:59.216Z,3.63
2022-11-27T21:32:00.843Z,3.77
2022-11-27T21:36:03.236Z,3.73
2022-11-27T21:40:10.308Z,3.56
2022-11-27T21:44:13.224Z,3.42
2022-11-27T21:48:14.715Z,3.17
2022-11-27T21:52:16.349Z,3.26
2022-11-27T21:56:20.268Z,3.35
2022-11-27T22:00:22.208Z,3.43
2022-11-27T22:04:27.201Z,3.37
2022-11-27T22:08:31.362Z,3.40
2022-11-27T22:12:32.836Z,3.36
2022-11-27T22:16:41.327Z,3.27
2022-11-27T22:20:46.116Z,3.30
2022-11-27T22:24:47.530Z,3.38
2022-11-27T22:28:49.582Z,3.63
2022-11-27T22:32:57.428Z,3.42
2022-11-27T22:36:58.851Z,3.17
2022-11-27T22:41:00.248Z,3.16
2022-11-27T22:45:01.822Z,3.21
2022-11-27T22:49:06.252Z,3.30
2022-11-27T22:53:07.679Z,3.24
2022-11-27T22:57:09.140Z,3.29
2022-11-27T23:01:16.408Z,3.26
2022-11-27T23:05:17.819Z,3.28
2022-11-27T23:09:19.386Z,3.18
2022-11-27T23:13:20.904Z,3.20
2022-11-27T23:17:22.468Z,3.14
2022-11-27T23:21:24.541Z,3.18
2022-11-27T23:25:28.178Z,3.29
2022-11-27T23:29:29.628Z,3.06
2022-11-27T23:33:31.075Z,3.21
2022-11-27T23:37:32.570Z,3.17
2022-11-27T23:41:34.157Z,3.13
2022-11-27T23:45:37.913Z,3.11
2022-11-27T23:49:39.336Z,3.01
2022-11-27T23:53:41.612Z,3.13
2022-11-27T23:57:43.096Z,3.10
